M/y Unica — J8Y4072 — position and weather

sailwx.info

Track history (hours):
 
Tides and Currents Weather Stations Pressure Air Temp Water Temp Dewpoint Dewpoint Depression Visibility Wind Speed Wind Dir Waves Ship Positions

M/y Unica

Last reported at 2015-Jul-07 01:32 UTC. Time now 2015-Jul-07 11:02 UTC.
Position N 35°53' E 014°31'.

Length 30 m; draft 2 m.

Type: Pleasure craft. MMSI: 377319000.

Date/timePositionNaut miles runAvg speedWind from/ knotsBaromVisibWave heightAir tempDewpointWater temp
2015-Jul-07 01:32N 35°53' E 014°31'0 0.0
2015-Jul-07 00:32N 35°53' E 014°31'0 0.0
2015-Jul-06 15:33N 35°53' E 014°31'1 0.7
2015-Jul-06 14:30N 35°54' E 014°31'1212.6
2015-Jul-06 13:33N 36°01' E 014°19'3 2.7
2015-Jul-06 12:33N 36°00' E 014°16'1 1.0
2015-Jul-06 11:33N 36°01' E 014°17'0 0.5
2015-Jul-06 10:33N 36°01' E 014°16'3 2.9
2015-Jul-06 09:33N 36°01' E 014°20'5 4.7
2015-Jul-06 08:33N 35°59' E 014°25'4 0.2
2015-Jul-05 16:33N 35°57' E 014°29'9 8.3
2015-Jul-05 15:30N 36°01' E 014°19'0 0.0
2015-Jul-05 14:33N 36°01' E 014°19'0 0.0
2015-Jul-05 13:33N 36°01' E 014°19'0 0.0
2015-Jul-05 12:33N 36°01' E 014°19'2 1.5
2015-Jul-05 11:33N 36°00' E 014°21'11 9.4
2015-Jul-05 10:26N 35°53' E 014°31'0 0.0
2015-Jul-05 09:32N 35°53' E 014°31'0 0.0
2015-Jul-05 08:23N 35°53' E 014°31'0 0.0
2015-Jul-05 07:32N 35°53' E 014°31'0 0.0
2015-Jul-05 06:14N 35°53' E 014°31'0 0.0
2015-Jul-05 05:08N 35°53' E 014°31'0 0.0
2015-Jul-05 04:32N 35°53' E 014°31'0 0.0
2015-Jul-05 03:26N 35°53' E 014°31'0 0.0
2015-Jul-05 02:32N 35°53' E 014°31'0 0.0
2015-Jul-05 01:32N 35°53' E 014°31'0 0.0
2015-Jul-04 23:26N 35°53' E 014°31'0 0.0
2015-Jul-04 22:26N 35°53' E 014°31'0 0.0
2015-Jul-04 21:32N 35°53' E 014°31'0 0.0
2015-Jul-04 17:32N 35°53' E 014°31'0 0.0
2015-Jul-04 16:20N 35°53' E 014°31'0 0.0
2015-Jul-04 15:32N 35°53' E 014°31'0 0.0
2015-Jul-04 14:26N 35°53' E 014°31'0 0.0
2015-Jul-04 10:32N 35°53' E 014°31'0 0.0
2015-Jul-04 00:29N 35°53' E 014°31'0 0.0
2015-Jul-03 23:32N 35°53' E 014°31'0 0.0
2015-Jul-03 22:14N 35°53' E 014°31'0 0.0
2015-Jul-03 21:26N 35°53' E 014°31'0 0.0
2015-Jul-03 20:32N 35°53' E 014°31'4 0.6
2015-Jul-03 13:33N 35°57' E 014°29'9 8.4
2015-Jul-03 12:33N 36°01' E 014°19'0 0.0
2015-Jul-03 11:33N 36°01' E 014°19'0 0.0
2015-Jul-03 10:32N 36°01' E 014°19'0 0.0
2015-Jul-03 09:32N 36°01' E 014°19'0 0.0
2015-Jul-03 08:32N 36°01' E 014°19'3 2.6
2015-Jul-03 07:33N 36°00' E 014°22'8 8.4
2015-Jul-03 06:33N 35°55' E 014°31'2 0.2
2015-Jul-02 23:18N 35°53' E 014°31'0 0.0
2015-Jul-02 22:18N 35°53' E 014°31'0 0.0
2015-Jul-02 21:30N 35°53' E 014°31'0 0.0
2015-Jul-02 03:24N 35°53' E 014°31'0 0.0
2015-Jul-01 08:12N 35°53' E 014°31'0 0.0
2015-Jul-01 07:06N 35°53' E 014°31'0 0.0
2015-Jul-01 06:12N 35°53' E 014°31'0 0.0
2015-Jun-30 08:30N 35°53' E 014°31'0 0.0
2015-Jun-29 08:15N 35°53' E 014°31'3 4.4
2015-Jun-29 07:33N 35°56' E 014°30'1111.6
2015-Jun-29 06:33N 36°04' E 014°19'1010.3
2015-Jun-29 05:33N 36°12' E 014°11'1411.0
2015-Jun-29 04:17N 36°22' E 013°59'810.9
2015-Jun-29 03:31N 36°28' E 013°52'13 9.8
2015-Jun-29 02:12N 36°37' E 013°41'710.8
2015-Jun-29 01:31N 36°43' E 013°34'2210.7
2015-Jun-28 23:27N 36°59' E 013°15'1210.9
2015-Jun-28 22:23N 37°07' E 013°05'42 8.7
2015-Jun-28 17:33N 37°34' E 012°24'5 4.8
2015-Jun-28 16:33N 37°37' E 012°20'2310.4
2015-Jun-28 14:21N 37°54' E 011°60'17510.4
2015-Jun-27 21:27N 40°22' E 009°57'2010.5
2015-Jun-27 19:33N 40°41' E 009°52'  
Track history (hours):
 
Tides and Currents Weather Stations Pressure Air Temp Water Temp Dewpoint Dewpoint Depression Visibility Wind Speed Wind Dir Waves Ship Positions

M/y Unica

Last reported at 2015-Jul-07 01:32 UTC. Time now 2015-Jul-07 11:02 UTC.
Position N 35°53' E 014°31'.

Length 30 m; draft 2 m.

Type: Pleasure craft. MMSI: 377319000.

Date/timePositionNaut miles runAvg speedWind from/ knotsBaromVisibWave heightAir tempDewpointWater temp
2015-Jul-07 01:32N 35°53' E 014°31'0 0.0
2015-Jul-07 00:32N 35°53' E 014°31'0 0.0
2015-Jul-06 15:33N 35°53' E 014°31'1 0.7
2015-Jul-06 14:30N 35°54' E 014°31'1212.6
2015-Jul-06 13:33N 36°01' E 014°19'3 2.7
2015-Jul-06 12:33N 36°00' E 014°16'1 1.0
2015-Jul-06 11:33N 36°01' E 014°17'0 0.5
2015-Jul-06 10:33N 36°01' E 014°16'3 2.9
2015-Jul-06 09:33N 36°01' E 014°20'5 4.7
2015-Jul-06 08:33N 35°59' E 014°25'4 0.2
2015-Jul-05 16:33N 35°57' E 014°29'9 8.3
2015-Jul-05 15:30N 36°01' E 014°19'0 0.0
2015-Jul-05 14:33N 36°01' E 014°19'0 0.0
2015-Jul-05 13:33N 36°01' E 014°19'0 0.0
2015-Jul-05 12:33N 36°01' E 014°19'2 1.5
2015-Jul-05 11:33N 36°00' E 014°21'11 9.4
2015-Jul-05 10:26N 35°53' E 014°31'0 0.0
2015-Jul-05 09:32N 35°53' E 014°31'0 0.0
2015-Jul-05 08:23N 35°53' E 014°31'0 0.0
2015-Jul-05 07:32N 35°53' E 014°31'0 0.0
2015-Jul-05 06:14N 35°53' E 014°31'0 0.0
2015-Jul-05 05:08N 35°53' E 014°31'0 0.0
2015-Jul-05 04:32N 35°53' E 014°31'0 0.0
2015-Jul-05 03:26N 35°53' E 014°31'0 0.0
2015-Jul-05 02:32N 35°53' E 014°31'0 0.0
2015-Jul-05 01:32N 35°53' E 014°31'0 0.0
2015-Jul-04 23:26N 35°53' E 014°31'0 0.0
2015-Jul-04 22:26N 35°53' E 014°31'0 0.0
2015-Jul-04 21:32N 35°53' E 014°31'0 0.0
2015-Jul-04 17:32N 35°53' E 014°31'0 0.0
2015-Jul-04 16:20N 35°53' E 014°31'0 0.0
2015-Jul-04 15:32N 35°53' E 014°31'0 0.0
2015-Jul-04 14:26N 35°53' E 014°31'0 0.0
2015-Jul-04 10:32N 35°53' E 014°31'0 0.0
2015-Jul-04 00:29N 35°53' E 014°31'0 0.0
2015-Jul-03 23:32N 35°53' E 014°31'0 0.0
2015-Jul-03 22:14N 35°53' E 014°31'0 0.0
2015-Jul-03 21:26N 35°53' E 014°31'0 0.0
2015-Jul-03 20:32N 35°53' E 014°31'4 0.6
2015-Jul-03 13:33N 35°57' E 014°29'9 8.4
2015-Jul-03 12:33N 36°01' E 014°19'0 0.0
2015-Jul-03 11:33N 36°01' E 014°19'0 0.0
2015-Jul-03 10:32N 36°01' E 014°19'0 0.0
2015-Jul-03 09:32N 36°01' E 014°19'0 0.0
2015-Jul-03 08:32N 36°01' E 014°19'3 2.6
2015-Jul-03 07:33N 36°00' E 014°22'8 8.4
2015-Jul-03 06:33N 35°55' E 014°31'2 0.2
2015-Jul-02 23:18N 35°53' E 014°31'0 0.0
2015-Jul-02 22:18N 35°53' E 014°31'0 0.0
2015-Jul-02 21:30N 35°53' E 014°31'0 0.0
2015-Jul-02 03:24N 35°53' E 014°31'0 0.0
2015-Jul-01 08:12N 35°53' E 014°31'0 0.0
2015-Jul-01 07:06N 35°53' E 014°31'0 0.0
2015-Jul-01 06:12N 35°53' E 014°31'0 0.0
2015-Jun-30 08:30N 35°53' E 014°31'0 0.0
2015-Jun-29 08:15N 35°53' E 014°31'3 4.4
2015-Jun-29 07:33N 35°56' E 014°30'1111.6
2015-Jun-29 06:33N 36°04' E 014°19'1010.3
2015-Jun-29 05:33N 36°12' E 014°11'1411.0
2015-Jun-29 04:17N 36°22' E 013°59'810.9
2015-Jun-29 03:31N 36°28' E 013°52'13 9.8
2015-Jun-29 02:12N 36°37' E 013°41'710.8
2015-Jun-29 01:31N 36°43' E 013°34'2210.7
2015-Jun-28 23:27N 36°59' E 013°15'1210.9
2015-Jun-28 22:23N 37°07' E 013°05'42 8.7
2015-Jun-28 17:33N 37°34' E 012°24'5 4.8
2015-Jun-28 16:33N 37°37' E 012°20'2310.4
2015-Jun-28 14:21N 37°54' E 011°60'17510.4
2015-Jun-27 21:27N 40°22' E 009°57'2010.5
2015-Jun-27 19:33N 40°41' E 009°52'  

Dump ship's entire track history